gordon.dewis.ca - Random musings from Gordon

Subscribe

Please, sir, can I have some more? No, really.

March 04, 2008 @ 19:50 By: gordon Category: Current affairs, Weather

If I were Norse, I’d blame the weather forecast on Loki because I don’t think Freyr was quite as much of a troublemaker, even though he was in charge of the weather. But, I’m not, so I won’t tempt incurring Loki’s wrath on top of this weather.

TAF CYOW 042338Z 050024 03012KT P6SM FEW040 BKN120
FM0300Z 06010G20KT 6SM -SN SCT020 OVC060 TEMPO 0305 2SM -SN
OVC020
FM0500Z 07012G22KT 11/2SM -SN VV012 TEMPO 0506 3/4SM -SN VV008
FM0600Z 07015G30KT 3/4SM -SN BLSN VV007 TEMPO 0608 1/4SM +SN BLSN VV003
FM0800Z 07015G25KT 1/4SM +SN BLSN VV002
FM1100Z 06020G30KT 11/2SM -PL BR VV010 TEMPO 1114 3/4SM -PLSN
BLSN VV007 PROB40 1114 1SM -FZRA BR
FM1400Z 06015G25KT 3/4SM -SN BLSN VV007 TEMPO 1417 1/4SM +SN BLSN VV003
FM1700Z 34015G25KT 2SM -SN OVC015 TEMPO 1719 5SM -SN PROB30 1719 1SM -FZDZ BR
FM1900Z 28010G20KT 6SM -SN OVC020
FM2200Z 27010G20KT P6SM BKN030 OVC060
RMK NXT FCST BY 03Z=

Wind. Snow. Ice pellets. Snow pellets. Freezing rain (maybe). Freezing drizzle (maybe). More snow. Lots of wind.

Basically, the next 24 hours or so are going to suck.

Leave a Reply

*